Aérodrome :
LOGIN :

S'inscrire | Disclaimer

   EN    FR    IT 

 










Légende :    VFR   VFR Marginal   IFR   IFR Intensif   IFR Très Intensif
Visi : 
Plafond : 
>= 8 km
>= 3000ft
5 à 8 km
1000 à 3000 ft
1500m à 5 km
500 à 1000 ft
800 à 1500m
200 à 500 ft
< 800m
< 200 ft
Symboles :   Orages  Brouillard  Fortes neiges  Fortes précipitations  Vent > 20 kt
SIGMETs :   Divers  Orages  Givrage  Turbulence  Onde Orograph.  Cendres Volcan.







- Altitude de l'aérodrome : 100 ft


EBDT - Schaffen

DERNIER METAR :
  • 280755Z 24005KT 9000 SCT015 BKN040 07/05 Q1014 WHT WHT TEMPO GRN

METARs EXPIRÉS :
  • 280725Z 22004KT 9000 SCT015 BKN030 06/05 Q1014 WHT WHT TEMPO GRN
  • 280718Z 21004KT 9000 SCT015 BKN030 06/04 Q1014 WHT WHT TEMPO GRN
  • 280708Z AUTO //////KT 7000 BKN014/// OVC041/// 05/04 Q1014 GRN
  • 280703Z 22003KT 9999 FEW013 SCT016 BKN040 05/04 Q1014 WHT BLU TEMPO WHT
  • 280625Z 22004KT 9999 SCT030 BKN045 05/03 Q1014 BLU BLU TEMPO WHT
  • 280555Z 23005KT 9999 SCT030 BKN045 04/03 Q1014 BLU BLU TEMPO WHT
  • 280536Z 22004KT 9999 FEW011 BKN028 04/03 Q1014 BLU BLU TEMPO WHT
  • 280525Z 23005KT 7000 -RA FEW011 BKN028 04/03 Q1014 WHT WHT

TAF TAF EBDT
Valide du 28 à 07h jusqu'au 28 à 16h UTC


280541Z 2807/2816 24008KT 9999 FEW013 SCT020 BKN060
TEMPO 2807/2811 7000 -RA SCT016 BKN035
PROB30
TEMPO 2807/2810 4000 RA SHRA SCT015 BKN025
TEMPO 2813/2816 28010KT 7000 - SHRA SCT025 BKN050
Pas de NOTAMs connus pour ce terrain.



MET'MAP, la Météo Aéronautique d'un coup d'oeil ! - Copyright ORBIFLY Décembre 2007 - Disclaimer

ORBIFLY MET'MAP TEAM :

Programmation & Développement : Alexandra Zaïnal
Conception & Développement : Baudouin d'Aumeries
Co-Programmation & Développement : Marc-Olivier Méhu
Soutien technique & logistique : Manuel Goepfert

Contact : metmap@orbifly.com




SOURCES & CREDITS :

   NOAA